Time;durP1;ratioP1;P1;durP2;ratioP2;P2;SDS_P1;SDS_P2;PMS_P1;PMS_P2;Temp;Humidity;BMP_temperature;BMP_pressure;BME280_temperature;BME280_humidity;BME280_pressure;Samples;Min_cycle;Max_cycle;Signal;HPM_P1;HPM_P2
2022/09/26 00:02:06;;;;;;;6.45;2.70;;;;;;;;;;5027450;28;20037;-77
2022/09/26 00:04:32;;;;;;;5.97;3.25;;;;;;;;;;5028144;28;20477;-77
2022/09/26 00:06:58;;;;;;;4.93;1.83;;;;;;;;;;5028277;28;20041;-77
2022/09/26 00:09:25;;;;;;;5.00;1.60;;;;;;;;;;5028237;28;20024;-77
2022/09/26 00:11:52;;;;;;;4.50;1.10;;;;;;;;;;5022645;28;20037;-77
2022/09/26 00:14:19;;;;;;;8.00;1.80;;;;;;;;;;5022919;28;20030;-77
2022/09/26 00:16:45;;;;;;;5.30;1.45;;;;;;;;;;5031464;28;20154;-77
2022/09/26 00:19:12;;;;;;;4.28;1.63;;;;;;;;;;5028669;28;20229;-77
2022/09/26 00:21:38;;;;;;;4.53;1.67;;;;;;;;;;5025226;28;20042;-77
2022/09/26 00:24:04;;;;;;;4.90;1.83;;;;;;;;;;5031619;28;20045;-77
2022/09/26 00:26:31;;;;;;;5.00;1.80;;;;;;;;;;5029083;28;20049;-77
2022/09/26 00:28:58;;;;;;;4.40;1.73;;;;;;;;;;5031372;28;20030;-77
2022/09/26 00:31:25;;;;;;;10.27;2.47;;;;;;;;;;5023508;28;20559;-77
2022/09/26 00:33:51;;;;;;;6.95;1.75;;;;;;;;;;5021851;28;20181;-77
2022/09/26 00:36:17;;;;;;;4.50;1.95;;;;;;;;;;5027560;28;20561;-77
2022/09/26 00:38:44;;;;;;;5.50;2.40;;;;;;;;;;5023844;28;20123;-77
2022/09/26 00:41:10;;;;;;;3.85;2.58;;;;;;;;;;5024499;28;20372;-77
2022/09/26 00:43:55;;;;;;;4.20;2.28;;;;;;;;;;5025888;28;20115;-77
2022/09/26 00:46:39;;;;;;;6.20;1.60;;;;;;;;;;5017828;28;20041;-77
2022/09/26 00:49:21;;;;;;;2.45;1.20;;;;;;;;;;5031417;28;20463;-77
2022/09/26 00:51:49;;;;;;;4.72;1.73;;;;;;;;;;5020884;28;20037;-77
2022/09/26 00:54:17;;;;;;;5.65;2.00;;;;;;;;;;5020648;28;20021;-77
2022/09/26 00:56:44;;;;;;;4.78;2.15;;;;;;;;;;5029834;28;20072;-77
2022/09/26 00:59:18;;;;;;;3.58;1.90;;;;;;;;;;5023934;28;20037;-77
2022/09/26 01:01:44;;;;;;;4.03;2.10;;;;;;;;;;5020837;28;20041;-77
2022/09/26 01:04:12;;;;;;;10.45;2.53;;;;;;;;;;5031119;28;20026;-77
2022/09/26 01:06:38;;;;;;;4.55;1.42;;;;;;;;;;5027384;28;20120;-77
2022/09/26 01:09:08;;;;;;;2.85;1.55;;;;;;;;;;5019401;28;20036;-77
2022/09/26 01:11:38;;;;;;;6.53;1.42;;;;;;;;;;5024333;28;20033;-77
2022/09/26 01:14:09;;;;;;;3.70;1.30;;;;;;;;;;5024798;28;20037;-77
2022/09/26 01:16:36;;;;;;;4.85;1.50;;;;;;;;;;5030254;28;20037;-77
2022/09/26 01:19:04;;;;;;;5.72;1.67;;;;;;;;;;5030906;28;20030;-77
2022/09/26 01:21:42;;;;;;;4.57;2.38;;;;;;;;;;5027247;28;20112;-77
2022/09/26 01:24:47;;;;;;;3.75;2.50;;;;;;;;;;5024375;28;20044;-77
2022/09/26 01:27:24;;;;;;;4.63;2.35;;;;;;;;;;5002456;28;20049;-77
2022/09/26 01:30:03;;;;;;;3.65;2.47;;;;;;;;;;4989205;28;20046;-77
2022/09/26 01:32:50;;;;;;;4.82;2.45;;;;;;;;;;5017552;28;20673;-77
2022/09/26 01:35:35;;;;;;;4.68;3.25;;;;;;;;;;5025820;28;20068;-77
2022/09/26 01:38:10;;;;;;;4.32;2.70;;;;;;;;;;5017922;28;20041;-77
2022/09/26 01:40:44;;;;;;;6.55;2.40;;;;;;;;;;5026325;28;20025;-77
2022/09/26 01:43:30;;;;;;;6.20;2.83;;;;;;;;;;5015389;28;20105;-77
2022/09/26 01:46:26;;;;;;;4.20;2.50;;;;;;;;;;5024467;28;20068;-77
2022/09/26 01:48:55;;;;;;;4.93;2.45;;;;;;;;;;5018318;28;20041;-77
2022/09/26 01:51:24;;;;;;;3.75;1.73;;;;;;;;;;5024929;28;20042;-77
2022/09/26 01:54:04;;;;;;;6.30;1.77;;;;;;;;;;5029760;28;20033;-77
2022/09/26 01:56:34;;;;;;;6.88;2.15;;;;;;;;;;5020178;28;20140;-77
2022/09/26 01:59:08;;;;;;;5.43;1.90;;;;;;;;;;5029415;28;20029;-77
2022/09/26 02:01:38;;;;;;;6.70;2.67;;;;;;;;;;5025465;28;20784;-77
2022/09/26 02:04:08;;;;;;;7.15;3.17;;;;;;;;;;5023365;28;20080;-77
2022/09/26 02:06:39;;;;;;;3.63;2.40;;;;;;;;;;5020385;28;20049;-77
2022/09/26 02:09:16;;;;;;;4.38;2.60;;;;;;;;;;5015589;28;20045;-77
2022/09/26 02:11:44;;;;;;;4.25;1.88;;;;;;;;;;5010369;28;20044;-77
2022/09/26 02:14:14;;;;;;;4.85;2.20;;;;;;;;;;5017419;28;20026;-77
2022/09/26 02:16:47;;;;;;;5.20;3.08;;;;;;;;;;5026491;28;20038;-77
2022/09/26 02:19:18;;;;;;;6.40;2.25;;;;;;;;;;5030130;28;20426;-77
2022/09/26 02:21:45;;;;;;;3.08;1.55;;;;;;;;;;5024356;28;20112;-77
2022/09/26 02:24:11;;;;;;;3.78;1.58;;;;;;;;;;5012655;28;20030;-77
2022/09/26 02:26:37;;;;;;;4.20;1.38;;;;;;;;;;5023380;28;20044;-77
2022/09/26 02:29:04;;;;;;;3.85;1.52;;;;;;;;;;5029803;28;20030;-77
2022/09/26 02:31:34;;;;;;;2.47;1.20;;;;;;;;;;5029175;28;20037;-77
2022/09/26 02:34:00;;;;;;;2.90;1.40;;;;;;;;;;5022294;28;20030;-77
2022/09/26 02:36:26;;;;;;;5.10;1.85;;;;;;;;;;5019351;28;20776;-77
2022/09/26 02:38:52;;;;;;;2.97;1.40;;;;;;;;;;5016204;28;20075;-77
2022/09/26 02:41:18;;;;;;;5.30;1.67;;;;;;;;;;5011460;28;20499;-77
2022/09/26 02:43:54;;;;;;;3.80;1.58;;;;;;;;;;5027404;28;20049;-77
2022/09/26 02:46:26;;;;;;;4.70;2.08;;;;;;;;;;5028304;28;20046;-77
2022/09/26 02:48:52;;;;;;;;;;;;;;;;;;5019729;28;20025;-77
2022/09/26 02:51:41;;;;;;;9.52;3.42;;;;;;;;;;5022468;28;20020;-77
2022/09/26 02:54:24;;;;;;;6.28;2.80;;;;;;;;;;5018126;28;20029;-77
2022/09/26 02:56:54;;;;;;;4.40;2.03;;;;;;;;;;5025098;28;20041;-77
2022/09/26 02:59:46;;;;;;;3.53;1.75;;;;;;;;;;5028993;28;20051;-77
2022/09/26 03:02:18;;;;;;;4.05;2.00;;;;;;;;;;5023615;28;20055;-77
2022/09/26 03:04:44;;;;;;;;;;;;;;;;;;5025401;28;20391;-77
2022/09/26 03:07:14;;;;;;;5.30;2.00;;;;;;;;;;5027524;28;19913;-77
2022/09/26 03:09:41;;;;;;;7.38;3.03;;;;;;;;;;5028940;28;20087;-77
2022/09/26 03:12:08;;;;;;;6.07;3.22;;;;;;;;;;5025921;28;20044;-77
2022/09/26 03:14:35;;;;;;;7.55;4.07;;;;;;;;;;5029009;28;20049;-77
2022/09/26 03:17:03;;;;;;;6.90;4.47;;;;;;;;;;5025803;28;22239;-77
2022/09/26 03:19:33;;;;;;;5.13;3.38;;;;;;;;;;5021027;28;20038;-77
2022/09/26 03:21:59;;;;;;;6.10;3.00;;;;;;;;;;5028292;28;20112;-77
2022/09/26 03:24:25;;;;;;;5.25;3.38;;;;;;;;;;5029045;28;20135;-77
2022/09/26 03:26:51;;;;;;;5.75;3.47;;;;;;;;;;5026839;28;20095;-77
2022/09/26 03:29:19;;;;;;;5.22;3.58;;;;;;;;;;5029095;28;20025;-77
2022/09/26 03:31:45;;;;;;;4.20;1.85;;;;;;;;;;5024212;28;20057;-77
2022/09/26 03:34:11;;;;;;;5.03;1.95;;;;;;;;;;5019516;28;20081;-77
2022/09/26 03:36:38;;;;;;;6.32;2.13;;;;;;;;;;5020241;28;20060;-77
2022/09/26 03:39:04;;;;;;;7.32;2.25;;;;;;;;;;5024326;28;20374;-77
2022/09/26 03:41:30;;;;;;;4.72;2.72;;;;;;;;;;5027377;28;20112;-77
2022/09/26 03:43:56;;;;;;;5.45;2.35;;;;;;;;;;5027949;28;20563;-77
2022/09/26 03:46:23;;;;;;;5.57;1.83;;;;;;;;;;5023085;28;20057;-77
2022/09/26 03:48:49;;;;;;;5.90;1.90;;;;;;;;;;5017558;28;20026;-77
2022/09/26 03:51:16;;;;;;;3.95;2.00;;;;;;;;;;5029896;28;20037;-77
2022/09/26 03:53:45;;;;;;;3.55;2.15;;;;;;;;;;5026641;28;20037;-77
2022/09/26 03:56:13;;;;;;;4.53;2.17;;;;;;;;;;5032886;28;20594;-77
2022/09/26 03:58:40;;;;;;;4.65;2.95;;;;;;;;;;5032301;28;20801;-77
2022/09/26 04:01:07;;;;;;;8.38;7.43;;;;;;;;;;5032250;28;20534;-77
2022/09/26 04:03:34;;;;;;;4.03;2.30;;;;;;;;;;5021478;28;20137;-77
2022/09/26 04:06:00;;;;;;;5.22;2.53;;;;;;;;;;5027966;28;20112;-77
2022/09/26 04:08:26;;;;;;;3.70;1.98;;;;;;;;;;5029897;28;20022;-77
2022/09/26 04:10:52;;;;;;;3.67;1.85;;;;;;;;;;5013765;28;20112;-77
2022/09/26 04:13:18;;;;;;;3.40;1.70;;;;;;;;;;5016472;28;20037;-77
2022/09/26 04:15:44;;;;;;;4.43;2.67;;;;;;;;;;5025019;28;20029;-77
2022/09/26 04:18:10;;;;;;;5.50;3.45;;;;;;;;;;5031730;28;20029;-77
2022/09/26 04:20:36;;;;;;;6.75;2.95;;;;;;;;;;5024402;28;20522;-77
2022/09/26 04:23:02;;;;;;;5.15;3.25;;;;;;;;;;5025269;28;20140;-77
2022/09/26 04:25:28;;;;;;;5.43;3.10;;;;;;;;;;5014285;28;20145;-77
2022/09/26 04:27:54;;;;;;;5.72;3.50;;;;;;;;;;5032075;28;20036;-77
2022/09/26 04:30:21;;;;;;;7.70;2.90;;;;;;;;;;5022280;28;20034;-76
2022/09/26 04:32:47;;;;;;;9.10;3.17;;;;;;;;;;5030550;28;20594;-77
2022/09/26 04:35:13;;;;;;;6.45;2.03;;;;;;;;;;5031323;28;20128;-77
2022/09/26 04:37:40;;;;;;;7.63;2.35;;;;;;;;;;5027525;28;20435;-77
2022/09/26 04:40:06;;;;;;;9.77;2.35;;;;;;;;;;5023382;28;20120;-77
2022/09/26 04:42:35;;;;;;;8.27;2.60;;;;;;;;;;5031351;28;20060;-76
2022/09/26 04:45:01;;;;;;;4.75;2.28;;;;;;;;;;5031579;28;20072;-77
2022/09/26 04:47:27;;;;;;;6.03;2.03;;;;;;;;;;5023498;28;20088;-77
2022/09/26 04:49:53;;;;;;;6.50;2.65;;;;;;;;;;5022202;28;20038;-76
2022/09/26 04:52:19;;;;;;;6.88;2.40;;;;;;;;;;5031587;28;20069;-77
2022/09/26 04:54:45;;;;;;;3.47;2.13;;;;;;;;;;5029085;28;20466;-77
2022/09/26 04:57:13;;;;;;;4.63;2.60;;;;;;;;;;5020493;28;20038;-77
2022/09/26 04:59:39;;;;;;;5.82;2.25;;;;;;;;;;5019060;28;20029;-77
2022/09/26 05:02:06;;;;;;;4.32;2.45;;;;;;;;;;5019877;28;20038;-77
2022/09/26 05:04:32;;;;;;;5.30;2.17;;;;;;;;;;5022347;28;20507;-77
2022/09/26 05:06:58;;;;;;;5.03;2.90;;;;;;;;;;5028172;28;20128;-77
2022/09/26 05:09:25;;;;;;;8.98;4.03;;;;;;;;;;5031277;28;20025;-77
2022/09/26 05:11:51;;;;;;;7.15;3.70;;;;;;;;;;5019151;28;20910;-76
2022/09/26 05:14:17;;;;;;;6.50;3.00;;;;;;;;;;5031127;28;20061;-77
2022/09/26 05:16:43;;;;;;;8.52;3.20;;;;;;;;;;5030644;28;20470;-77
2022/09/26 05:19:09;;;;;;;8.15;2.92;;;;;;;;;;5030410;28;20025;-77
2022/09/26 05:21:35;;;;;;;5.30;2.92;;;;;;;;;;5029923;28;20033;-77
2022/09/26 05:26:51;;;;;;;7.93;3.33;;;;;;;;;;5029073;28;20401;-77
2022/09/26 05:29:19;;;;;;;7.93;3.25;;;;;;;;;;5030472;28;20031;-77
2022/09/26 05:31:45;;;;;;;8.75;4.30;;;;;;;;;;5028848;28;20057;-77
2022/09/26 05:34:12;;;;;;;10.02;5.40;;;;;;;;;;5016955;28;20045;-77
2022/09/26 05:36:38;;;;;;;13.80;5.53;;;;;;;;;;5023498;28;20104;-77
2022/09/26 05:40:55;;;;;;;8.60;4.72;;;;;;;;;;5019423;28;20042;-76
2022/09/26 05:41:52;;;;;;;8.07;4.03;;;;;;;;;;5026829;28;20053;-77
2022/09/26 05:44:18;;;;;;;23.00;14.75;;;;;;;;;;5030729;28;20041;-77
2022/09/26 05:46:45;;;;;;;17.63;11.32;;;;;;;;;;5024920;28;20065;-77
2022/09/26 05:49:13;;;;;;;16.30;7.78;;;;;;;;;;5027208;28;20033;-77
2022/09/26 05:51:40;;;;;;;9.27;5.00;;;;;;;;;;5029456;28;20037;-77
2022/09/26 05:54:06;;;;;;;12.40;4.60;;;;;;;;;;5022004;28;20025;-77
2022/09/26 05:56:36;;;;;;;5.38;2.95;;;;;;;;;;5021262;28;22022;-77
2022/09/26 05:59:02;;;;;;;7.00;2.40;;;;;;;;;;5029480;28;20144;-76
2022/09/26 06:01:28;;;;;;;4.70;2.55;;;;;;;;;;5021040;28;20234;-76
2022/09/26 06:03:54;;;;;;;6.63;3.60;;;;;;;;;;5022875;23;20824;-77
2022/09/26 06:06:20;;;;;;;6.35;3.80;;;;;;;;;;4999458;28;20032;-77
2022/09/26 06:08:46;;;;;;;5.53;2.92;;;;;;;;;;5002458;28;20045;-77
2022/09/26 06:11:14;;;;;;;5.68;3.30;;;;;;;;;;5009975;28;20065;-77
2022/09/26 06:13:42;;;;;;;5.05;3.17;;;;;;;;;;5006831;28;20109;-77
2022/09/26 06:16:10;;;;;;;5.88;3.20;;;;;;;;;;4998292;28;20622;-77
2022/09/26 06:18:37;;;;;;;8.98;4.53;;;;;;;;;;5008227;28;20061;-77
2022/09/26 06:21:03;;;;;;;6.63;3.97;;;;;;;;;;4999489;28;20089;-77
2022/09/26 06:23:30;;;;;;;7.85;4.20;;;;;;;;;;5006590;28;20710;-77
2022/09/26 06:25:57;;;;;;;6.05;3.90;;;;;;;;;;5001791;28;20034;-77
2022/09/26 06:28:23;;;;;;;6.05;4.20;;;;;;;;;;5002464;28;20075;-77
2022/09/26 06:30:49;;;;;;;7.15;3.85;;;;;;;;;;5003719;28;20418;-77
2022/09/26 06:33:15;;;;;;;7.68;4.80;;;;;;;;;;5003481;28;20037;-77
2022/09/26 06:35:41;;;;;;;7.22;4.10;;;;;;;;;;4998069;28;20318;-77
2022/09/26 06:38:07;;;;;;;7.15;4.47;;;;;;;;;;5007767;28;20045;-77
2022/09/26 06:40:33;;;;;;;8.32;4.28;;;;;;;;;;5005719;28;20036;-77
2022/09/26 06:43:00;;;;;;;5.75;3.88;;;;;;;;;;5002190;28;20727;-77
2022/09/26 06:45:26;;;;;;;7.55;4.20;;;;;;;;;;5004649;28;20137;-77
2022/09/26 06:47:53;;;;;;;6.05;4.18;;;;;;;;;;5008308;28;20038;-77
2022/09/26 06:50:19;;;;;;;5.95;3.65;;;;;;;;;;5002391;28;20732;-77
2022/09/26 06:52:46;;;;;;;12.20;4.18;;;;;;;;;;5006660;28;20034;-77
2022/09/26 06:55:12;;;;;;;9.88;4.00;;;;;;;;;;5006390;28;20865;-77
2022/09/26 06:57:39;;;;;;;6.30;3.00;;;;;;;;;;5006214;28;20109;-77
2022/09/26 07:00:06;;;;;;;9.40;3.40;;;;;;;;;;5000219;28;20029;-76
2022/09/26 07:02:32;;;;;;;6.93;2.35;;;;;;;;;;5005068;28;20054;-77
2022/09/26 07:04:58;;;;;;;7.32;3.53;;;;;;;;;;5008055;28;20037;-76
2022/09/26 07:07:24;;;;;;;12.70;3.63;;;;;;;;;;4999499;28;20030;-77
2022/09/26 07:09:50;;;;;;;9.10;3.40;;;;;;;;;;5006091;28;20033;-77
2022/09/26 07:12:16;;;;;;;7.03;3.15;;;;;;;;;;5008138;28;20030;-77
2022/09/26 07:14:43;;;;;;;9.02;3.55;;;;;;;;;;5004122;28;20034;-77
2022/09/26 07:17:14;;;;;;;18.75;2.92;;;;;;;;;;5008773;28;20025;-77
2022/09/26 07:19:40;;;;;;;7.07;3.08;;;;;;;;;;5005022;28;20033;-77
2022/09/26 07:22:06;;;;;;;7.05;2.35;;;;;;;;;;5002402;28;20039;-77
2022/09/26 07:24:33;;;;;;;8.20;3.47;;;;;;;;;;5002841;28;20046;-77
2022/09/26 07:27:00;;;;;;;6.30;3.28;;;;;;;;;;5006363;28;20034;-77
2022/09/26 07:29:26;;;;;;;7.63;2.38;;;;;;;;;;5008289;28;20053;-77
2022/09/26 07:31:52;;;;;;;8.55;2.50;;;;;;;;;;5013173;28;20040;-77
2022/09/26 07:34:23;;;;;;;4.70;2.90;;;;;;;;;;5012144;28;20034;-77
2022/09/26 07:36:50;;;;;;;3.75;2.35;;;;;;;;;;5015523;28;20026;-77
2022/09/26 07:39:16;;;;;;;5.18;2.67;;;;;;;;;;5011688;28;20029;-77
2022/09/26 07:41:43;;;;;;;5.13;2.30;;;;;;;;;;5013712;28;20499;-77
2022/09/26 07:44:09;;;;;;;5.07;2.72;;;;;;;;;;5022954;28;20509;-77
2022/09/26 07:52:04;;;;;;;6.15;2.67;;;;;;;;;;5013995;28;20087;-77
2022/09/26 07:54:31;;;;;;;6.15;2.92;;;;;;;;;;5006132;28;20044;-78
2022/09/26 07:56:57;;;;;;;6.20;2.20;;;;;;;;;;5016213;28;20582;-77
2022/09/26 07:59:23;;;;;;;6.15;2.53;;;;;;;;;;5012341;28;20033;-77
2022/09/26 08:01:49;;;;;;;4.10;1.40;;;;;;;;;;5003370;28;20369;-77
2022/09/26 08:04:17;;;;;;;5.13;1.75;;;;;;;;;;5004585;28;20092;-77
2022/09/26 08:06:43;;;;;;;3.38;1.65;;;;;;;;;;5016592;28;20463;-77
2022/09/26 08:09:09;;;;;;;5.63;2.20;;;;;;;;;;5010077;28;20041;-77
2022/09/26 08:11:36;;;;;;;4.72;2.00;;;;;;;;;;5013229;28;20026;-77
2022/09/26 08:14:02;;;;;;;4.20;1.70;;;;;;;;;;5016852;28;20038;-77
2022/09/26 08:16:29;;;;;;;4.38;1.70;;;;;;;;;;5009350;28;20030;-77
2022/09/26 08:18:55;;;;;;;2.80;1.02;;;;;;;;;;5009471;28;20045;-77
2022/09/26 08:21:22;;;;;;;2.15;0.93;;;;;;;;;;4999302;28;20034;-77
2022/09/26 08:23:48;;;;;;;2.90;1.10;;;;;;;;;;5012881;28;20523;-77
2022/09/26 08:26:14;;;;;;;2.95;1.13;;;;;;;;;;5010059;28;20805;-77
2022/09/26 08:28:41;;;;;;;4.68;1.15;;;;;;;;;;5009892;28;20417;-76
2022/09/26 08:31:07;;;;;;;2.78;1.08;;;;;;;;;;5011038;28;20490;-77
2022/09/26 08:33:34;;;;;;;6.88;1.60;;;;;;;;;;5006870;28;20045;-77
2022/09/26 08:36:08;;;;;;;6.38;1.38;;;;;;;;;;5010552;28;20516;-77
2022/09/26 08:38:35;;;;;;;8.05;1.60;;;;;;;;;;5010007;28;20153;-77
2022/09/26 08:41:05;;;;;;;7.75;2.33;;;;;;;;;;5012388;28;20113;-77
2022/09/26 08:43:34;;;;;;;4.68;2.15;;;;;;;;;;5006438;28;20492;-77
2022/09/26 08:48:54;;;;;;;4.95;2.17;;;;;;;;;;5022041;28;20352;-77
2022/09/26 08:51:31;;;;;;;6.28;1.80;;;;;;;;;;5008250;28;20080;-77
2022/09/26 08:54:06;;;;;;;6.15;2.00;;;;;;;;;;5002211;28;20046;-77
2022/09/26 08:56:34;;;;;;;5.57;1.70;;;;;;;;;;5002022;28;20064;-77
2022/09/26 08:59:02;;;;;;;7.20;1.75;;;;;;;;;;5005958;28;20034;-77
2022/09/26 09:01:29;;;;;;;3.90;1.30;;;;;;;;;;5009314;28;20084;-77
2022/09/26 09:04:28;;;;;;;5.90;1.70;;;;;;;;;;5002785;28;20060;-77
2022/09/26 09:07:01;;;;;;;5.07;1.30;;;;;;;;;;4984152;28;20061;-77
2022/09/26 09:09:27;;;;;;;4.30;1.75;;;;;;;;;;5010636;28;20033;-77
2022/09/26 09:12:00;;;;;;;3.85;1.08;;;;;;;;;;5008265;28;20042;-77
2022/09/26 09:14:49;;;;;;;3.83;1.30;;;;;;;;;;5001541;28;20041;-77
2022/09/26 09:17:24;;;;;;;7.45;1.60;;;;;;;;;;5008144;28;20038;-77
2022/09/26 09:19:56;;;;;;;4.70;1.40;;;;;;;;;;5002290;28;20037;-77
2022/09/26 09:22:22;;;;;;;;;;;;;;;;;;5006477;28;20042;-77
2022/09/26 09:25:05;;;;;;;8.00;1.90;;;;;;;;;;5008635;28;19959;-77
2022/09/26 09:27:43;;;;;;;4.82;1.35;;;;;;;;;;5001067;28;20065;-77
2022/09/26 09:30:20;;;;;;;6.72;1.90;;;;;;;;;;5004979;28;20026;-77
2022/09/26 09:32:52;;;;;;;7.85;1.75;;;;;;;;;;5012754;28;20080;-77
2022/09/26 09:35:20;;;;;;;3.63;1.50;;;;;;;;;;4997433;28;20022;-77
2022/09/26 09:37:48;;;;;;;5.47;1.20;;;;;;;;;;5009447;28;20037;-77
2022/09/26 09:40:21;;;;;;;4.00;1.42;;;;;;;;;;5005373;28;20062;-77
2022/09/26 09:42:51;;;;;;;5.25;1.17;;;;;;;;;;5008365;28;20030;-77
2022/09/26 09:45:28;;;;;;;6.38;1.50;;;;;;;;;;5012775;28;20084;-77
2022/09/26 09:47:55;;;;;;;4.75;1.45;;;;;;;;;;5012996;28;20042;-77
2022/09/26 09:50:34;;;;;;;3.53;1.17;;;;;;;;;;5010340;28;20034;-77
2022/09/26 09:53:18;;;;;;;5.32;1.40;;;;;;;;;;5012476;28;20042;-76
2022/09/26 09:56:01;;;;;;;6.78;1.88;;;;;;;;;;5005348;28;20043;-77
2022/09/26 09:58:28;;;;;;;3.50;1.30;;;;;;;;;;5008205;28;20025;-76
2022/09/26 10:01:11;;;;;;;2.78;1.13;;;;;;;;;;4997100;28;20111;-76
2022/09/26 10:03:47;;;;;;;3.90;1.20;;;;;;;;;;5006280;28;21087;-77
2022/09/26 10:06:13;;;;;;;3.53;1.17;;;;;;;;;;5006939;28;20208;-77
2022/09/26 10:08:41;;;;;;;5.20;1.13;;;;;;;;;;5005790;28;20065;-77
2022/09/26 10:11:15;;;;;;;3.53;1.17;;;;;;;;;;5011578;28;20018;-77
2022/09/26 10:13:43;;;;;;;3.60;1.13;;;;;;;;;;5007413;28;20639;-77
2022/09/26 10:16:14;;;;;;;3.63;1.10;;;;;;;;;;5009304;28;20518;-78
2022/09/26 10:19:02;;;;;;;4.18;0.95;;;;;;;;;;5009856;28;20388;-76
2022/09/26 10:21:38;;;;;;;5.22;0.90;;;;;;;;;;4972650;28;20096;-77
2022/09/26 10:24:05;;;;;;;2.17;0.70;;;;;;;;;;5006277;28;20034;-77
2022/09/26 10:26:35;;;;;;;3.67;0.93;;;;;;;;;;5000760;28;20034;-76
2022/09/26 10:29:09;;;;;;;7.32;1.25;;;;;;;;;;5002628;28;20427;-76
2022/09/26 10:31:37;;;;;;;4.68;1.27;;;;;;;;;;5001059;28;20049;-76
2022/09/26 10:34:05;;;;;;;2.75;1.33;;;;;;;;;;5005889;28;20533;-76
2022/09/26 10:36:33;;;;;;;3.25;0.95;;;;;;;;;;5006024;28;20026;-77
2022/09/26 10:41:47;;;;;;;5.38;1.13;;;;;;;;;;5007336;28;20110;-76
2022/09/26 10:44:27;;;;;;;4.55;1.27;;;;;;;;;;5004186;28;20037;-76
2022/09/26 10:46:56;;;;;;;6.03;1.73;;;;;;;;;;4999029;28;20477;-76
2022/09/26 10:49:25;;;;;;;6.00;1.92;;;;;;;;;;5005185;28;20034;-76
2022/09/26 10:52:00;;;;;;;6.22;1.52;;;;;;;;;;5001895;28;20026;-77
2022/09/26 10:54:35;;;;;;;7.63;1.73;;;;;;;;;;5003168;28;20404;-76
2022/09/26 10:57:01;;;;;;;3.15;1.52;;;;;;;;;;4999200;28;20034;-77
2022/09/26 10:59:30;;;;;;;5.93;1.88;;;;;;;;;;5001405;28;20038;-77
2022/09/26 11:01:57;;;;;;;4.70;2.10;;;;;;;;;;5004726;28;20053;-77
2022/09/26 11:07:18;;;;;;;3.10;1.40;;;;;;;;;;5009042;28;20049;-77
2022/09/26 11:09:45;;;;;;;5.50;2.17;;;;;;;;;;5000295;28;20038;-77
2022/09/26 11:12:25;;;;;;;5.55;2.88;;;;;;;;;;4995793;28;20081;-77
2022/09/26 11:14:58;;;;;;;6.55;2.95;;;;;;;;;;5004881;28;20029;-77
2022/09/26 11:17:43;;;;;;;6.32;2.40;;;;;;;;;;5005357;28;20113;-77
2022/09/26 11:20:13;;;;;;;5.28;2.63;;;;;;;;;;5004699;28;20981;-77
2022/09/26 11:22:47;;;;;;;4.90;2.45;;;;;;;;;;5001485;28;20802;-77
2022/09/26 11:25:24;;;;;;;7.70;3.00;;;;;;;;;;5000512;28;20049;-77
2022/09/26 11:28:08;;;;;;;5.40;2.63;;;;;;;;;;5004282;28;20037;-77
2022/09/26 11:30:39;;;;;;;4.85;2.40;;;;;;;;;;4999390;28;20038;-77
2022/09/26 11:33:10;;;;;;;6.75;2.40;;;;;;;;;;5001697;28;20038;-77
2022/09/26 11:36:00;;;;;;;5.72;3.05;;;;;;;;;;5007463;28;20037;-77
2022/09/26 11:38:39;;;;;;;5.70;2.90;;;;;;;;;;5000095;28;20061;-77
2022/09/26 11:41:06;;;;;;;5.95;3.22;;;;;;;;;;5002837;28;20042;-77
2022/09/26 11:43:44;;;;;;;6.75;3.60;;;;;;;;;;5006935;28;20715;-77
2022/09/26 11:46:14;;;;;;;5.10;2.90;;;;;;;;;;5009290;28;20413;-77
2022/09/26 11:48:59;;;;;;;6.40;3.50;;;;;;;;;;5004403;28;20133;-77
2022/09/26 11:51:44;;;;;;;5.70;2.92;;;;;;;;;;5003958;28;20022;-77
2022/09/26 11:54:16;;;;;;;7.28;3.03;;;;;;;;;;5002187;28;20428;-77
2022/09/26 11:56:48;;;;;;;6.65;3.17;;;;;;;;;;5000411;28;20034;-77
2022/09/26 11:59:26;;;;;;;5.15;2.67;;;;;;;;;;5003393;28;20558;-77
2022/09/26 12:02:02;;;;;;;7.53;2.70;;;;;;;;;;4998313;28;20401;-77
2022/09/26 12:04:29;;;;;;;8.50;3.45;;;;;;;;;;5001893;28;20040;-77
2022/09/26 12:07:15;;;;;;;5.72;2.80;;;;;;;;;;5015353;28;20033;-77
2022/09/26 12:09:46;;;;;;;5.40;3.22;;;;;;;;;;5011006;28;20137;-77
2022/09/26 12:12:40;;;;;;;6.60;2.72;;;;;;;;;;5002658;28;20357;-77
2022/09/26 12:15:20;;;;;;;4.75;3.05;;;;;;;;;;5004190;28;20891;-77
2022/09/26 12:17:52;;;;;;;4.72;2.75;;;;;;;;;;5012385;28;20030;-76
2022/09/26 12:20:18;;;;;;;;;;;;;;;;;;5001770;28;20034;-77
2022/09/26 12:22:55;;;;;;;4.55;2.35;;;;;;;;;;5008354;28;20413;-77
2022/09/26 12:25:21;;;;;;;6.05;2.65;;;;;;;;;;5008730;28;20034;-77
2022/09/26 12:27:56;;;;;;;4.88;2.90;;;;;;;;;;5013721;28;20470;-77
2022/09/26 12:30:25;;;;;;;5.03;2.60;;;;;;;;;;5008693;28;20249;-77
2022/09/26 12:32:58;;;;;;;6.25;2.40;;;;;;;;;;5010327;28;20070;-77
2022/09/26 12:35:28;;;;;;;9.50;3.20;;;;;;;;;;5014469;28;20025;-77
2022/09/26 12:38:09;;;;;;;3.90;2.40;;;;;;;;;;5008275;28;20120;-77
2022/09/26 12:40:52;;;;;;;3.67;1.90;;;;;;;;;;5012383;28;20030;-77
2022/09/26 12:43:18;;;;;;;4.20;2.38;;;;;;;;;;5015338;28;20034;-77
2022/09/26 12:46:04;;;;;;;4.93;2.65;;;;;;;;;;5000963;28;20555;-77
2022/09/26 12:48:36;;;;;;;3.63;2.30;;;;;;;;;;5014940;28;20101;-77
2022/09/26 12:51:27;;;;;;;4.90;2.45;;;;;;;;;;5013371;28;20033;-76
2022/09/26 12:54:14;;;;;;;4.20;2.35;;;;;;;;;;5007205;28;20041;-77
2022/09/26 12:56:43;;;;;;;4.65;2.28;;;;;;;;;;5007018;28;20379;-77
2022/09/26 12:59:28;;;;;;;3.47;2.00;;;;;;;;;;5005295;28;20038;-77
2022/09/26 13:01:57;;;;;;;4.78;2.40;;;;;;;;;;5000034;28;20080;-77
2022/09/26 13:04:40;;;;;;;4.30;1.80;;;;;;;;;;4997988;28;20833;-77
2022/09/26 13:07:24;;;;;;;6.03;1.95;;;;;;;;;;5007300;28;20843;-78
2022/09/26 13:10:03;;;;;;;4.28;2.00;;;;;;;;;;5007298;28;20079;-77
2022/09/26 13:12:47;;;;;;;4.93;1.98;;;;;;;;;;5007814;28;20113;-77
2022/09/26 13:15:14;;;;;;;3.60;1.92;;;;;;;;;;5002685;28;20041;-77
2022/09/26 13:17:44;;;;;;;5.22;1.60;;;;;;;;;;5001248;28;20409;-77
2022/09/26 13:20:26;;;;;;;4.68;2.10;;;;;;;;;;5011149;28;20985;-78
2022/09/26 13:22:52;;;;;;;3.45;1.90;;;;;;;;;;5004407;28;20585;-77
2022/09/26 13:25:19;;;;;;;3.67;1.42;;;;;;;;;;5015130;28;20104;-77
2022/09/26 13:27:55;;;;;;;2.88;1.30;;;;;;;;;;5003826;28;20041;-77
2022/09/26 13:30:27;;;;;;;3.67;1.45;;;;;;;;;;5002478;28;20028;-77
2022/09/26 13:32:57;;;;;;;5.10;1.70;;;;;;;;;;5009712;28;20038;-77
2022/09/26 13:35:24;;;;;;;9.63;3.33;;;;;;;;;;5006283;28;20030;-77
2022/09/26 13:38:00;;;;;;;3.15;1.63;;;;;;;;;;5012412;28;20066;-77
2022/09/26 13:40:44;;;;;;;5.13;1.38;;;;;;;;;;5004356;28;20029;-77
2022/09/26 13:43:17;;;;;;;4.97;1.77;;;;;;;;;;5009609;28;20046;-77
2022/09/26 13:46:09;;;;;;;4.85;1.80;;;;;;;;;;5004391;28;20066;-77
2022/09/26 13:48:44;;;;;;;4.68;2.10;;;;;;;;;;4996279;28;20141;-77
2022/09/26 13:51:19;;;;;;;2.97;1.20;;;;;;;;;;5002866;28;20040;-77
2022/09/26 13:53:51;;;;;;;5.10;1.48;;;;;;;;;;5005665;28;20104;-76
2022/09/26 13:56:40;;;;;;;4.70;2.07;;;;;;;;;;5011566;28;20083;-76
2022/09/26 13:59:16;;;;;;;9.23;1.50;;;;;;;;;;5009528;28;20042;-77
2022/09/26 14:02:01;;;;;;;5.72;1.27;;;;;;;;;;5008170;28;20436;-77
2022/09/26 14:04:34;;;;;;;5.13;1.30;;;;;;;;;;5001672;28;20044;-77
2022/09/26 14:09:22;;;;;;;3.03;1.13;;;;;;;;;;5004533;28;20042;-77
2022/09/26 14:09:55;;;;;;;4.15;1.30;;;;;;;;;;5004573;28;20042;-77
2022/09/26 14:12:31;;;;;;;5.18;1.40;;;;;;;;;;5001647;28;20057;-77
2022/09/26 14:15:27;;;;;;;2.90;1.20;;;;;;;;;;5006433;28;20030;-77
2022/09/26 14:18:05;;;;;;;4.78;1.30;;;;;;;;;;4994020;28;20108;-77
2022/09/26 14:20:33;;;;;;;4.50;1.35;;;;;;;;;;5006924;28;20034;-77
2022/09/26 14:23:01;;;;;;;3.85;1.60;;;;;;;;;;5002605;28;20048;-77
2022/09/26 14:25:46;;;;;;;5.15;1.60;;;;;;;;;;5006465;28;20044;-77
2022/09/26 14:28:21;;;;;;;5.97;1.30;;;;;;;;;;5003527;28;20556;-77
2022/09/26 14:31:06;;;;;;;4.45;1.48;;;;;;;;;;5011531;28;20033;-77
2022/09/26 14:33:32;;;;;;;5.40;1.52;;;;;;;;;;5001927;28;20096;-77
2022/09/26 14:36:23;;;;;;;3.50;1.30;;;;;;;;;;5004530;28;20033;-77
2022/09/26 14:38:50;;;;;;;7.25;1.60;;;;;;;;;;5004922;28;20061;-77
2022/09/26 14:41:17;;;;;;;4.15;1.63;;;;;;;;;;5011162;28;20034;-77
2022/09/26 14:43:43;;;;;;;6.35;1.42;;;;;;;;;;5011078;28;20391;-77
2022/09/26 14:46:17;;;;;;;6.15;1.67;;;;;;;;;;5005881;28;20055;-77
2022/09/26 14:48:44;;;;;;;3.25;1.20;;;;;;;;;;5014322;28;20474;-77
2022/09/26 14:51:10;;;;;;;4.35;1.80;;;;;;;;;;4993525;28;20582;-77
2022/09/26 14:53:39;;;;;;;7.80;1.80;;;;;;;;;;5008150;28;20033;-77
2022/09/26 14:56:11;;;;;;;4.75;1.85;;;;;;;;;;4996186;28;20570;-77
2022/09/26 14:58:37;;;;;;;7.45;1.60;;;;;;;;;;5008812;28;20072;-77
2022/09/26 15:01:04;;;;;;;5.43;1.80;;;;;;;;;;5011646;28;20053;-77
2022/09/26 15:03:31;;;;;;;5.30;1.60;;;;;;;;;;5006490;28;20053;-77
2022/09/26 15:05:58;;;;;;;3.40;1.20;;;;;;;;;;4999447;28;20035;-77
2022/09/26 15:08:26;;;;;;;6.68;1.30;;;;;;;;;;5003898;28;20033;-77
2022/09/26 15:10:53;;;;;;;4.85;1.50;;;;;;;;;;5007807;28;20063;-77
2022/09/26 15:13:22;;;;;;;6.40;1.70;;;;;;;;;;5005507;28;20026;-77
2022/09/26 15:15:52;;;;;;;5.35;1.67;;;;;;;;;;5007893;28;20033;-77
2022/09/26 15:18:27;;;;;;;4.22;1.58;;;;;;;;;;5007145;28;20042;-77
2022/09/26 15:21:02;;;;;;;3.95;1.60;;;;;;;;;;5009121;28;20104;-77
2022/09/26 15:23:30;;;;;;;2.65;1.20;;;;;;;;;;5006836;28;20667;-77